Terminal Aerodrome Forecast
Issued by NWS Topeka, KS

Home | Current Version | Previous Version | Graphics & Text | Print | Product List | Glossary On
Versions: 1 2 3 4 5 6 7 8 9 10 11 12 13 14 15 16 17 18 19 20 21 22 23 24
000
FTUS43 KTOP 230900 AAA
TAFTOP
TAF AMD
KTOP 230901Z 2309/2406 12005KT P6SM SHRA OVC035
     FM230930 13008KT P6SM SHRA SCT007 OVC015
     FM231300 12008KT 6SM SHRA BR BKN008 OVC015
     FM231700 13011KT P6SM SHRA BKN015 OVC025
     FM240100 10010KT 4SM RA VCTS BKN015CB OVC025=

USA.gov is the U.S. government's official web portal to all federal, state and local government web resources and services.